Time;durP1;ratioP1;P1;durP2;ratioP2;P2;SDS_P1;SDS_P2;PMS_P1;PMS_P2;Temp;Humidity;BMP_temperature;BMP_pressure;BME280_temperature;BME280_humidity;BME280_pressure;Samples;Min_cycle;Max_cycle;Signal;HPM_P1;HPM_P2
2022/09/09 00:01:41;;;;;;;9.10;5.82;;;;;;;17.53;77.80;98154.50;5048971;28;20025;-70
2022/09/09 00:04:23;;;;;;;7.78;6.32;;;;;;;17.51;77.81;98162.38;5049517;28;20158;-70
2022/09/09 00:07:13;;;;;;;8.00;6.00;;;;;;;17.50;77.63;98162.75;5049275;28;20024;-70
2022/09/09 00:09:49;;;;;;;7.75;6.25;;;;;;;17.49;77.70;98164.69;5048235;28;20028;-70
2022/09/09 00:12:34;;;;;;;7.72;5.95;;;;;;;17.48;77.56;98171.38;5049089;28;20079;-70
2022/09/09 00:15:05;;;;;;;8.35;6.25;;;;;;;17.47;77.57;98164.22;5048973;28;20087;-71
2022/09/09 00:17:54;;;;;;;7.57;6.18;;;;;;;17.44;77.53;98164.13;5048834;28;20017;-70
2022/09/09 00:20:23;;;;;;;8.20;6.68;;;;;;;17.42;77.45;98161.69;5049616;28;20103;-70
2022/09/09 00:23:14;;;;;;;8.40;6.78;;;;;;;17.36;77.28;98163.91;5048019;28;20512;-70
2022/09/09 00:25:43;;;;;;;9.45;7.40;;;;;;;17.35;77.45;98167.00;5042434;28;20041;-70
2022/09/09 00:28:19;;;;;;;11.35;7.28;;;;;;;17.28;77.60;98166.81;5049632;28;20033;-70
2022/09/09 00:30:48;;;;;;;8.05;7.05;;;;;;;17.24;77.36;98173.06;5049907;28;20420;-70
2022/09/09 00:33:16;;;;;;;7.93;6.90;;;;;;;17.22;77.74;98172.59;5049306;28;20025;-70
2022/09/09 00:35:48;;;;;;;9.52;6.75;;;;;;;17.18;77.67;98176.38;5049050;28;20082;-69
2022/09/09 00:38:23;;;;;;;9.23;6.50;;;;;;;17.13;77.60;98166.34;5048942;28;20393;-71
2022/09/09 00:40:49;;;;;;;10.00;6.47;;;;;;;17.11;77.46;98168.66;5047940;28;20533;-70
2022/09/09 00:43:30;;;;;;;7.65;6.18;;;;;;;17.09;77.83;98169.03;5048801;28;20109;-71
2022/09/09 00:46:29;;;;;;;8.77;6.60;;;;;;;17.05;77.50;98173.63;5046370;28;20139;-71
2022/09/09 00:49:14;;;;;;;6.22;5.57;;;;;;;17.04;77.40;98180.34;5047241;28;20036;-70
2022/09/09 00:51:57;;;;;;;7.68;6.25;;;;;;;17.00;77.70;98175.81;5048230;28;20021;-71
2022/09/09 00:54:28;;;;;;;6.88;5.90;;;;;;;16.96;77.71;98186.78;5049523;28;20429;-70
2022/09/09 00:57:00;;;;;;;6.32;5.72;;;;;;;16.93;77.72;98188.25;5049108;28;20036;-71
2022/09/09 00:59:45;;;;;;;7.45;6.10;;;;;;;16.91;77.72;98193.31;5048024;28;20029;-70
2022/09/09 01:02:31;;;;;;;7.50;5.43;;;;;;;16.89;77.40;98186.53;5048810;28;20108;-71
2022/09/09 01:05:07;;;;;;;7.85;5.15;;;;;;;16.86;77.61;98190.81;5049347;28;20037;-71
2022/09/09 01:07:32;;;;;;;6.50;4.68;;;;;;;16.84;77.73;98193.09;5048936;28;20025;-71
2022/09/09 01:10:00;;;;;;;5.93;4.95;;;;;;;16.82;77.59;98200.94;5048755;28;20120;-71
2022/09/09 01:12:43;;;;;;;6.72;4.85;;;;;;;16.76;77.80;98196.78;5048695;28;20104;-71
2022/09/09 01:15:18;;;;;;;6.20;4.95;;;;;;;16.73;77.92;98197.47;5049387;28;20033;-71
2022/09/09 01:18:10;;;;;;;5.60;5.05;;;;;;;16.71;77.61;98191.47;5048913;28;20052;-71
2022/09/09 01:21:02;;;;;;;6.32;5.10;;;;;;;16.69;77.78;98196.53;5048884;28;20044;-71
2022/09/09 01:23:49;;;;;;;5.72;5.13;;;;;;;16.65;77.55;98196.41;5048798;28;20029;-71
2022/09/09 01:26:14;;;;;;;7.13;5.28;;;;;;;16.64;77.50;98198.38;5048942;28;20056;-71
2022/09/09 01:28:46;;;;;;;5.45;4.78;;;;;;;16.63;77.58;98202.28;5049260;28;20072;-71
2022/09/09 01:31:17;;;;;;;6.20;5.57;;;;;;;16.60;77.85;98197.44;5049317;28;20025;-71
2022/09/09 01:33:42;;;;;;;8.38;6.40;;;;;;;16.59;77.92;98195.03;5048527;28;20499;-71
2022/09/09 01:36:14;;;;;;;6.40;5.13;;;;;;;16.56;77.86;98210.34;5048817;28;20017;-71
2022/09/09 01:38:40;;;;;;;6.13;5.30;;;;;;;16.55;77.62;98211.50;5048931;28;20047;-71
2022/09/09 01:41:05;;;;;;;5.38;4.88;;;;;;;16.55;77.71;98214.25;5049201;28;20358;-71
2022/09/09 01:43:31;;;;;;;5.90;4.97;;;;;;;16.54;77.71;98215.41;5048157;28;20132;-71
2022/09/09 01:46:00;;;;;;;6.00;4.43;;;;;;;16.52;78.14;98214.94;5049427;28;20037;-71
2022/09/09 01:48:27;;;;;;;6.47;4.68;;;;;;;16.52;78.29;98212.19;5052425;28;20029;-71
2022/09/09 01:50:52;;;;;;;6.88;4.90;;;;;;;16.49;77.79;98215.66;5052577;28;20029;-71
2022/09/09 01:53:20;;;;;;;6.55;4.63;;;;;;;16.48;77.71;98222.34;5052211;28;20100;-71
2022/09/09 01:56:00;;;;;;;5.20;4.70;;;;;;;16.46;77.83;98216.34;5052154;28;20029;-71
2022/09/09 01:58:34;;;;;;;6.22;4.75;;;;;;;16.43;77.83;98217.81;5052398;28;20035;-71
2022/09/09 02:01:10;;;;;;;5.88;4.57;;;;;;;16.44;78.12;98224.97;5051138;28;20021;-71
2022/09/09 02:03:36;;;;;;;4.70;4.28;;;;;;;16.47;77.91;98231.78;5051552;28;20025;-71
2022/09/09 02:06:14;;;;;;;5.85;4.65;;;;;;;16.46;77.72;98232.94;5050583;28;20029;-71
2022/09/09 02:08:39;;;;;;;7.53;4.60;;;;;;;16.47;78.02;98234.56;5050824;28;20024;-71
2022/09/09 02:11:18;;;;;;;7.60;4.70;;;;;;;16.48;78.28;98227.88;5050827;28;20025;-71
2022/09/09 02:13:46;;;;;;;6.18;4.60;;;;;;;16.47;78.27;98227.06;5051685;28;20089;-71
2022/09/09 02:16:40;;;;;;;4.97;4.35;;;;;;;16.48;77.90;98233.41;5049960;28;20036;-71
2022/09/09 02:19:12;;;;;;;4.65;4.22;;;;;;;16.47;78.09;98234.56;5052157;28;20043;-71
2022/09/09 02:21:41;;;;;;;4.93;4.43;;;;;;;16.47;78.09;98235.34;5051556;28;20025;-71
2022/09/09 02:24:10;;;;;;;4.87;4.37;;;;;;;16.48;78.05;98238.94;5052047;28;20025;-71
2022/09/09 02:26:40;;;;;;;4.90;4.40;;;;;;;16.45;78.11;98234.88;5050452;28;20132;-71
2022/09/09 02:29:13;;;;;;;6.47;4.65;;;;;;;16.43;78.03;98242.72;5052181;28;20036;-71
2022/09/09 02:31:42;;;;;;;6.88;4.25;;;;;;;16.41;78.32;98245.00;5051803;28;20717;-71
2022/09/09 02:34:10;;;;;;;5.03;4.53;;;;;;;16.40;78.16;98239.84;5052102;28;20025;-71
2022/09/09 02:36:39;;;;;;;5.43;4.50;;;;;;;16.39;78.09;98243.75;5050437;28;20029;-71
2022/09/09 02:39:07;;;;;;;5.68;4.13;;;;;;;16.37;77.98;98247.66;5052298;28;20020;-71
2022/09/09 02:41:36;;;;;;;4.82;4.35;;;;;;;16.34;77.99;98242.81;5052049;28;20503;-71
2022/09/09 02:44:06;;;;;;;4.70;4.30;;;;;;;16.31;77.92;98239.91;5051644;28;20493;-72
2022/09/09 02:47:02;;;;;;;5.07;4.55;;;;;;;16.28;77.75;98240.59;5051481;28;20583;-71
2022/09/09 02:49:49;;;;;;;4.93;4.20;;;;;;;16.26;77.71;98249.22;5051519;28;20036;-71
2022/09/09 02:52:18;;;;;;;6.70;4.40;;;;;;;16.24;77.84;98251.53;5051961;28;20493;-71
2022/09/09 02:54:44;;;;;;;5.38;4.45;;;;;;;16.24;77.71;98240.47;5052317;28;20021;-71
2022/09/09 02:57:21;;;;;;;5.65;4.20;;;;;;;16.19;77.72;98248.97;5051236;28;20113;-71
2022/09/09 02:59:47;;;;;;;4.38;3.97;;;;;;;16.18;77.77;98241.81;5051848;28;20041;-72
2022/09/09 03:02:13;;;;;;;5.63;4.35;;;;;;;16.16;77.70;98257.94;5052038;28;20029;-72
2022/09/09 03:04:39;;;;;;;5.18;4.68;;;;;;;16.15;77.48;98259.91;5052053;28;20067;-72
2022/09/09 03:07:05;;;;;;;6.07;4.45;;;;;;;16.13;77.45;98258.59;5051981;28;20108;-72
2022/09/09 03:09:32;;;;;;;5.10;4.47;;;;;;;16.12;77.45;98251.47;5051294;28;20045;-71
2022/09/09 03:11:58;;;;;;;5.18;4.57;;;;;;;16.11;77.80;98258.97;5051327;28;20040;-72
2022/09/09 03:14:27;;;;;;;6.20;5.10;;;;;;;16.09;77.51;98258.50;5051575;28;20214;-72
2022/09/09 03:16:53;;;;;;;6.90;5.00;;;;;;;16.07;77.67;98264.38;5051085;28;20028;-72
2022/09/09 03:19:20;;;;;;;6.25;5.65;;;;;;;16.06;77.28;98264.69;5051403;28;20025;-72
2022/09/09 03:21:46;;;;;;;5.82;5.22;;;;;;;16.05;77.39;98265.84;5049436;28;20036;-72
2022/09/09 03:24:13;;;;;;;6.35;5.70;;;;;;;16.06;77.53;98265.53;5049732;28;20063;-72
2022/09/09 03:26:40;;;;;;;6.78;5.40;;;;;;;16.05;77.84;98272.19;5050677;28;20027;-72
2022/09/09 03:29:06;;;;;;;7.43;5.78;;;;;;;16.05;77.74;98263.06;5050736;28;20152;-72
2022/09/09 03:31:33;;;;;;;8.80;6.68;;;;;;;16.03;77.55;98268.97;5050596;28;20025;-72
2022/09/09 03:33:58;;;;;;;7.97;6.75;;;;;;;15.99;77.73;98273.53;5049148;28;20025;-72
2022/09/09 03:36:26;;;;;;;8.98;7.20;;;;;;;15.96;77.23;98274.22;5050192;28;20614;-72
2022/09/09 03:38:54;;;;;;;9.88;7.90;;;;;;;15.93;77.64;98266.59;5050627;28;20032;-72
2022/09/09 03:41:20;;;;;;;10.20;8.48;;;;;;;15.90;77.53;98273.59;5050055;28;20028;-71
2022/09/09 03:43:46;;;;;;;10.40;8.15;;;;;;;15.84;77.61;98274.94;5049380;28;20056;-71
2022/09/09 03:46:11;;;;;;;11.13;8.23;;;;;;;15.81;77.39;98278.34;5049583;28;20032;-72
2022/09/09 03:48:37;;;;;;;10.65;8.68;;;;;;;15.81;77.55;98288.59;5050231;28;20147;-72
2022/09/09 03:51:02;;;;;;;11.68;8.75;;;;;;;15.76;77.49;98287.63;5050554;28;20397;-72
2022/09/09 03:53:29;;;;;;;9.77;8.77;;;;;;;15.72;78.03;98275.63;5050176;28;20389;-71
2022/09/09 03:55:56;;;;;;;11.65;8.75;;;;;;;15.71;78.19;98287.03;5050271;28;20037;-72
2022/09/09 03:58:23;;;;;;;10.15;7.78;;;;;;;15.68;77.64;98284.94;5051023;28;20033;-72
2022/09/09 04:01:06;;;;;;;10.93;8.20;;;;;;;15.63;77.98;98294.25;5050927;28;20020;-71
2022/09/09 04:03:31;;;;;;;11.13;8.60;;;;;;;15.61;78.47;98293.78;5050472;28;20036;-71
2022/09/09 04:06:00;;;;;;;9.95;8.13;;;;;;;15.58;77.80;98294.44;5050412;28;20025;-71
2022/09/09 04:08:26;;;;;;;11.05;8.60;;;;;;;15.55;77.93;98293.13;5050363;28;20029;-71
2022/09/09 04:10:53;;;;;;;11.27;8.05;;;;;;;15.53;78.32;98300.16;5050497;28;20487;-71
2022/09/09 04:13:19;;;;;;;10.05;7.85;;;;;;;15.53;78.18;98294.63;5050488;28;20029;-72
2022/09/09 04:15:54;;;;;;;10.68;8.73;;;;;;;15.48;77.93;98290.09;5050343;28;20409;-71
2022/09/09 04:18:20;;;;;;;10.10;8.10;;;;;;;15.45;77.99;98297.09;5043642;28;20043;-72
2022/09/09 04:20:48;;;;;;;11.07;7.97;;;;;;;15.46;78.13;98295.16;5050705;28;20029;-72
2022/09/09 04:23:14;;;;;;;9.23;7.60;;;;;;;15.44;78.24;98292.72;5048744;28;20440;-72
2022/09/09 04:25:51;;;;;;;10.07;7.70;;;;;;;15.42;78.62;98295.00;5050196;28;20021;-72
2022/09/09 04:28:18;;;;;;;9.25;7.88;;;;;;;15.41;78.41;98287.03;5050714;28;20025;-71
2022/09/09 04:30:44;;;;;;;8.77;6.88;;;;;;;15.40;78.67;98288.97;5050098;28;20554;-71
2022/09/09 04:33:11;;;;;;;10.05;6.75;;;;;;;15.42;78.23;98288.66;5049744;28;20067;-72
2022/09/09 04:35:37;;;;;;;9.38;6.85;;;;;;;15.44;78.36;98283.63;5049990;28;20057;-72
2022/09/09 04:38:03;;;;;;;8.70;7.80;;;;;;;15.42;78.67;98278.41;5048705;28;20398;-72
2022/09/09 04:40:29;;;;;;;10.00;7.78;;;;;;;15.42;78.66;98283.94;5050415;28;20555;-71
2022/09/09 04:42:58;;;;;;;8.82;7.05;;;;;;;15.41;78.50;98284.28;5049645;28;20032;-72
2022/09/09 04:45:23;;;;;;;8.75;6.70;;;;;;;15.41;78.62;98287.03;5050133;28;20049;-72
2022/09/09 04:47:48;;;;;;;9.48;6.68;;;;;;;15.41;78.73;98287.84;5049533;28;20628;-72
2022/09/09 04:50:15;;;;;;;8.45;6.75;;;;;;;15.41;78.68;98287.03;5050145;28;20037;-72
2022/09/09 04:52:41;;;;;;;8.02;7.03;;;;;;;15.42;78.80;98288.66;5049584;28;20029;-71
2022/09/09 04:55:07;;;;;;;6.72;5.85;;;;;;;15.42;78.47;98285.91;5050288;28;20390;-72
2022/09/09 04:57:32;;;;;;;8.00;5.65;;;;;;;15.42;78.59;98285.91;5049279;28;20048;-72
2022/09/09 04:59:59;;;;;;;7.63;5.88;;;;;;;15.44;78.77;98295.47;5050031;28;20329;-71
2022/09/09 05:02:26;;;;;;;8.15;6.30;;;;;;;15.47;78.62;98296.78;5048125;28;20025;-72
2022/09/09 05:04:51;;;;;;;8.32;6.05;;;;;;;15.47;78.81;98305.84;5050046;28;20029;-72
2022/09/09 05:07:16;;;;;;;7.10;6.20;;;;;;;15.48;78.49;98315.78;5049542;28;20028;-72
2022/09/09 05:09:42;;;;;;;6.90;6.13;;;;;;;15.51;79.14;98314.28;5049681;28;20029;-72
2022/09/09 05:12:08;;;;;;;7.68;5.90;;;;;;;15.54;78.99;98308.09;5049740;28;20021;-72
2022/09/09 05:14:35;;;;;;;9.35;6.60;;;;;;;15.56;78.83;98308.56;5050337;28;20060;-72
2022/09/09 05:17:01;;;;;;;8.70;6.50;;;;;;;15.59;79.13;98310.66;5049811;28;20021;-72
2022/09/09 05:19:26;;;;;;;7.22;6.22;;;;;;;15.59;79.14;98312.63;5050074;28;20389;-72
2022/09/09 05:21:52;;;;;;;9.02;6.97;;;;;;;15.59;78.99;98313.44;5051629;28;20103;-72
2022/09/09 05:24:17;;;;;;;9.23;7.07;;;;;;;15.61;79.24;98318.66;5054153;28;20025;-72
2022/09/09 05:26:43;;;;;;;9.00;6.75;;;;;;;15.64;79.31;98317.97;5053834;28;20090;-72
2022/09/09 05:29:09;;;;;;;9.63;7.15;;;;;;;15.67;79.26;98317.31;5050915;28;20032;-72
2022/09/09 05:31:34;;;;;;;9.85;7.07;;;;;;;15.70;79.52;98318.59;5053303;28;20029;-72
2022/09/09 05:34:00;;;;;;;11.13;7.10;;;;;;;15.73;79.51;98327.00;5053515;28;20032;-72
2022/09/09 05:36:25;;;;;;;8.32;6.95;;;;;;;15.76;79.37;98322.78;5053202;28;20135;-72
2022/09/09 05:38:53;;;;;;;9.35;6.95;;;;;;;15.82;79.36;98327.00;5053603;28;20032;-72
2022/09/09 05:41:19;;;;;;;11.30;7.40;;;;;;;15.86;79.52;98321.59;5053767;28;20025;-72
2022/09/09 05:43:46;;;;;;;9.05;7.40;;;;;;;15.87;79.58;98317.72;5053564;28;20616;-72
2022/09/09 05:46:14;;;;;;;9.43;7.00;;;;;;;15.89;79.61;98316.25;5053370;28;20025;-71
2022/09/09 05:48:43;;;;;;;9.70;7.00;;;;;;;15.93;79.55;98316.38;5053493;28;20110;-72
2022/09/09 05:51:15;;;;;;;10.45;6.97;;;;;;;15.96;79.65;98325.94;5053704;28;20048;-72
2022/09/09 05:53:41;;;;;;;8.43;6.80;;;;;;;15.96;79.21;98320.41;5053153;28;20029;-71
2022/09/09 05:56:13;;;;;;;8.80;6.82;;;;;;;15.99;79.34;98331.63;5053157;28;20547;-71
2022/09/09 05:58:40;;;;;;;11.63;6.57;;;;;;;16.02;79.53;98327.38;5053826;28;20065;-72
2022/09/09 06:01:17;;;;;;;7.85;5.82;;;;;;;16.05;79.51;98329.47;5052769;28;20056;-72
2022/09/09 06:03:44;;;;;;;9.23;6.80;;;;;;;16.11;79.64;98324.53;5052614;28;20032;-72
2022/09/09 06:06:12;;;;;;;7.13;6.10;;;;;;;16.15;79.74;98328.25;5052913;28;20029;-72
2022/09/09 06:08:40;;;;;;;8.85;6.82;;;;;;;16.20;79.55;98333.59;5052608;28;20056;-72
2022/09/09 06:11:15;;;;;;;10.02;6.60;;;;;;;16.22;79.18;98325.75;5053025;28;20017;-72
2022/09/09 06:13:41;;;;;;;10.35;7.15;;;;;;;16.27;79.79;98327.53;5052705;28;20037;-71
2022/09/09 06:16:15;;;;;;;8.05;6.45;;;;;;;16.29;79.44;98319.72;5052782;28;20029;-71
2022/09/09 06:18:41;;;;;;;9.65;6.60;;;;;;;16.35;79.77;98323.88;5052485;28;20041;-72
2022/09/09 06:21:15;;;;;;;8.70;6.30;;;;;;;16.37;79.70;98327.94;5052208;28;20484;-71
2022/09/09 06:23:41;;;;;;;8.65;6.60;;;;;;;16.41;79.58;98319.75;5050276;28;20116;-72
2022/09/09 06:26:17;;;;;;;9.48;6.38;;;;;;;16.49;79.30;98334.69;5049149;28;20049;-70
2022/09/09 06:28:42;;;;;;;8.43;6.18;;;;;;;16.54;79.05;98326.16;5051583;28;20021;-71
2022/09/09 06:31:10;;;;;;;9.07;6.40;;;;;;;16.58;79.34;98321.56;5051258;28;20473;-71
2022/09/09 06:33:40;;;;;;;9.88;6.38;;;;;;;16.63;79.64;98326.09;5051267;28;20124;-72
2022/09/09 06:36:14;;;;;;;8.95;6.28;;;;;;;16.68;79.58;98320.34;5051567;28;20484;-71
2022/09/09 06:38:40;;;;;;;7.63;5.90;;;;;;;16.72;79.36;98321.25;5052016;28;20108;-71
2022/09/09 06:41:06;;;;;;;9.48;6.22;;;;;;;16.78;79.64;98319.09;5050870;28;20473;-71
2022/09/09 06:43:32;;;;;;;8.18;6.10;;;;;;;16.84;79.04;98319.69;5051640;28;20052;-71
2022/09/09 06:45:59;;;;;;;11.02;6.10;;;;;;;16.88;79.56;98320.63;5050839;28;20033;-71
2022/09/09 06:48:25;;;;;;;7.55;5.97;;;;;;;16.91;79.28;98325.47;5051217;28;20032;-71
2022/09/09 06:51:12;;;;;;;8.45;5.85;;;;;;;16.95;79.22;98320.88;5051078;28;20033;-72
2022/09/09 06:53:39;;;;;;;7.22;5.32;;;;;;;17.00;79.42;98320.69;5044678;28;20055;-71
2022/09/09 06:56:11;;;;;;;7.65;5.82;;;;;;;17.04;79.38;98310.56;5050964;28;20059;-71
2022/09/09 06:58:43;;;;;;;9.10;5.38;;;;;;;17.08;79.41;98314.25;5050532;28;20040;-71
2022/09/09 07:01:14;;;;;;;6.90;4.90;;;;;;;17.13;78.94;98310.44;5051478;28;20032;-71
2022/09/09 07:03:41;;;;;;;7.15;4.90;;;;;;;17.19;79.13;98311.00;5050880;28;20025;-71
2022/09/09 07:06:13;;;;;;;8.02;5.35;;;;;;;17.22;79.21;98313.94;5050894;28;20587;-71
2022/09/09 07:08:39;;;;;;;6.55;5.47;;;;;;;17.26;79.26;98308.50;5051211;28;20029;-71
2022/09/09 07:11:06;;;;;;;8.48;5.75;;;;;;;17.30;78.97;98311.41;5051306;28;20492;-71
2022/09/09 07:13:31;;;;;;;6.80;5.35;;;;;;;17.33;79.05;98305.13;5051084;28;20439;-72
2022/09/09 07:16:13;;;;;;;6.00;5.22;;;;;;;17.36;79.11;98310.81;5051195;28;20024;-71
2022/09/09 07:18:41;;;;;;;7.22;5.28;;;;;;;17.41;78.96;98312.53;5050741;28;20104;-71
2022/09/09 07:21:08;;;;;;;7.80;6.35;;;;;;;17.44;78.97;98317.41;5051386;28;20025;-71
2022/09/09 07:23:35;;;;;;;7.85;6.18;;;;;;;17.48;78.70;98317.53;5050585;28;20027;-71
2022/09/09 07:26:01;;;;;;;9.80;4.95;;;;;;;17.53;78.99;98320.06;5048197;28;20450;-71
2022/09/09 07:28:28;;;;;;;7.35;4.82;;;;;;;17.60;79.01;98322.25;5048359;28;20769;-71
2022/09/09 07:31:03;;;;;;;6.78;4.53;;;;;;;17.66;78.93;98330.00;5050175;28;20441;-71
2022/09/09 07:33:31;;;;;;;7.30;4.88;;;;;;;17.72;78.82;98327.81;5050323;28;20021;-71
2022/09/09 07:36:06;;;;;;;6.38;4.15;;;;;;;17.80;78.66;98331.63;5050442;28;20029;-71
2022/09/09 07:38:37;;;;;;;5.88;4.15;;;;;;;17.87;78.77;98340.19;5049228;28;20036;-71
2022/09/09 07:41:11;;;;;;;8.43;4.55;;;;;;;17.96;78.81;98335.28;5049564;28;20025;-71
2022/09/09 07:43:41;;;;;;;4.55;4.10;;;;;;;18.05;78.72;98329.66;5049460;28;20025;-71
2022/09/09 07:46:07;;;;;;;5.88;3.95;;;;;;;18.13;78.83;98327.91;5049597;28;20588;-71
2022/09/09 07:48:33;;;;;;;5.80;4.38;;;;;;;18.21;78.65;98337.25;5050505;28;20029;-71
2022/09/09 07:51:11;;;;;;;4.72;3.78;;;;;;;18.26;78.61;98337.00;5051332;28;20029;-71
2022/09/09 07:53:39;;;;;;;6.18;3.45;;;;;;;18.34;78.43;98338.84;5049518;28;20044;-70
2022/09/09 07:56:09;;;;;;;6.55;3.47;;;;;;;18.38;78.26;98336.97;5048540;28;20159;-71
2022/09/09 07:58:35;;;;;;;7.00;3.72;;;;;;;18.44;78.30;98341.13;5049716;28;20033;-71
2022/09/09 08:01:11;;;;;;;7.45;3.60;;;;;;;18.51;78.21;98339.72;5050044;28;20025;-71
2022/09/09 08:03:37;;;;;;;4.40;3.42;;;;;;;18.57;78.22;98338.28;5048454;28;20079;-72
2022/09/09 08:06:04;;;;;;;3.85;3.35;;;;;;;18.62;77.71;98340.03;5049593;28;20037;-71
2022/09/09 08:08:30;;;;;;;6.32;3.17;;;;;;;18.64;77.49;98344.06;5049958;28;20025;-72
2022/09/09 08:11:07;;;;;;;4.57;3.30;;;;;;;18.71;77.85;98337.91;5049559;28;20029;-71
2022/09/09 08:13:35;;;;;;;6.10;3.10;;;;;;;18.79;77.69;98342.50;5049463;28;20028;-70
2022/09/09 08:16:09;;;;;;;4.07;2.47;;;;;;;18.86;77.58;98350.22;5049208;28;20473;-71
2022/09/09 08:18:35;;;;;;;5.10;2.55;;;;;;;18.93;77.21;98347.66;5049609;28;20067;-71
2022/09/09 08:21:17;;;;;;;4.38;2.88;;;;;;;18.99;77.30;98343.47;5049540;28;20056;-71
2022/09/09 08:23:44;;;;;;;3.10;2.60;;;;;;;19.07;77.05;98350.03;5049783;28;20112;-71
2022/09/09 08:26:15;;;;;;;4.90;2.55;;;;;;;19.15;77.00;98354.63;5050057;28;20051;-71
2022/09/09 08:28:41;;;;;;;3.60;2.40;;;;;;;19.23;76.81;98352.84;5047194;28;20021;-70
2022/09/09 08:31:16;;;;;;;3.13;2.13;;;;;;;19.28;76.21;98354.53;5049630;28;20021;-70
2022/09/09 08:33:45;;;;;;;4.40;2.53;;;;;;;19.31;76.12;98351.88;5049315;28;20022;-70
2022/09/09 08:36:15;;;;;;;4.07;2.35;;;;;;;19.34;76.01;98356.72;5049199;28;20469;-70
2022/09/09 08:38:41;;;;;;;6.13;2.40;;;;;;;19.40;75.79;98357.25;5049757;28;20260;-69
2022/09/09 08:41:35;;;;;;;5.97;2.60;;;;;;;19.45;75.60;98365.34;5049434;28;20025;-70
2022/09/09 08:44:25;;;;;;;4.25;2.53;;;;;;;19.46;75.00;98366.13;5048428;28;20741;-71
2022/09/09 08:47:00;;;;;;;5.57;2.72;;;;;;;19.46;74.72;98368.91;5047445;28;20060;-70
2022/09/09 08:49:43;;;;;;;4.07;2.50;;;;;;;19.45;74.69;98362.56;5047371;28;20037;-71
2022/09/09 08:52:15;;;;;;;4.88;2.70;;;;;;;19.51;74.58;98359.50;5043903;28;20067;-70
2022/09/09 08:54:41;;;;;;;4.05;2.40;;;;;;;19.55;74.30;98361.19;5046668;28;20044;-70
2022/09/09 08:57:18;;;;;;;5.50;2.45;;;;;;;19.60;73.97;98351.75;5046691;28;20037;-72
2022/09/09 08:59:44;;;;;;;4.35;2.75;;;;;;;19.63;73.72;98354.66;5046202;28;20025;-72
2022/09/09 09:02:38;;;;;;;4.07;2.40;;;;;;;19.63;73.43;98354.66;5050948;28;20085;-71
2022/09/09 09:05:34;;;;;;;4.50;2.80;;;;;;;19.65;73.12;98348.72;5051690;28;20029;-71
2022/09/09 09:08:23;;;;;;;4.63;3.00;;;;;;;19.69;73.11;98352.41;5047776;28;20044;-70
2022/09/09 09:10:51;;;;;;;5.03;3.10;;;;;;;19.74;73.12;98349.34;5051849;28;20480;-73
2022/09/09 09:13:20;;;;;;;5.20;2.92;;;;;;;19.82;72.98;98344.75;5051578;28;20580;-71
2022/09/09 09:15:52;;;;;;;4.68;3.30;;;;;;;19.89;72.90;98331.03;5052161;28;20044;-71
2022/09/09 09:18:17;;;;;;;4.22;2.78;;;;;;;19.98;72.87;98328.03;5050461;28;20059;-70
2022/09/09 09:20:54;;;;;;;5.20;3.10;;;;;;;20.08;72.80;98332.28;5051613;28;20731;-71
2022/09/09 09:23:24;;;;;;;4.45;3.00;;;;;;;20.17;72.50;98335.66;5052557;28;20048;-71
2022/09/09 09:25:52;;;;;;;5.63;2.70;;;;;;;20.25;72.27;98338.59;5052696;28;20021;-71
2022/09/09 09:28:25;;;;;;;2.42;2.22;;;;;;;20.30;72.11;98335.50;5052639;28;20021;-70
2022/09/09 09:30:57;;;;;;;2.78;1.77;;;;;;;20.34;71.49;98334.44;5052868;28;20409;-71
2022/09/09 09:33:31;;;;;;;3.35;2.05;;;;;;;20.39;71.32;98333.34;5052818;28;20036;-71
2022/09/09 09:35:57;;;;;;;3.55;1.90;;;;;;;20.47;71.38;98337.88;5052925;28;20050;-71
2022/09/09 09:38:26;;;;;;;3.40;1.90;;;;;;;20.53;70.71;98341.19;5047339;28;20032;-71
2022/09/09 09:41:00;;;;;;;3.13;2.00;;;;;;;20.59;70.37;98341.69;5051536;28;20044;-71
2022/09/09 09:43:31;;;;;;;3.67;1.90;;;;;;;20.67;70.70;98343.44;5051674;28;20036;-70
2022/09/09 09:45:58;;;;;;;2.13;1.73;;;;;;;20.73;70.34;98333.63;5051439;28;20104;-71
2022/09/09 09:48:24;;;;;;;3.25;1.95;;;;;;;20.81;70.09;98338.19;5051589;28;20491;-71
2022/09/09 09:51:07;;;;;;;2.40;1.75;;;;;;;20.88;70.26;98337.53;5051110;28;20033;-71
2022/09/09 09:53:36;;;;;;;2.90;1.60;;;;;;;20.98;70.11;98338.94;5052068;28;20028;-72
2022/09/09 09:56:07;;;;;;;2.75;1.90;;;;;;;21.05;69.84;98335.47;5052564;28;20036;-72
2022/09/09 09:58:38;;;;;;;2.70;2.10;;;;;;;21.12;69.63;98343.97;5052699;28;20409;-71
2022/09/09 10:01:04;;;;;;;2.65;2.10;;;;;;;21.14;69.33;98346.38;5052059;28;20113;-70
2022/09/09 10:03:33;;;;;;;3.28;2.00;;;;;;;21.17;69.16;98346.44;5051727;28;20090;-70
2022/09/09 10:05:58;;;;;;;3.42;1.90;;;;;;;21.22;68.98;98351.69;5051738;28;20397;-71
2022/09/09 10:08:25;;;;;;;2.63;2.33;;;;;;;21.24;68.80;98356.91;5049453;28;20029;-71
2022/09/09 10:11:20;;;;;;;2.50;1.70;;;;;;;21.25;68.82;98362.09;5052081;28;20033;-72
2022/09/09 10:14:12;;;;;;;3.20;1.48;;;;;;;21.30;68.43;98363.81;5050110;28;20112;-71
2022/09/09 10:16:49;;;;;;;2.83;1.70;;;;;;;21.35;68.07;98371.06;5051397;28;20021;-71
2022/09/09 10:19:32;;;;;;;3.10;1.80;;;;;;;21.35;67.29;98371.88;5051898;28;20049;-71
2022/09/09 10:22:32;;;;;;;3.00;1.60;;;;;;;21.37;67.46;98379.84;5048503;28;20032;-69
2022/09/09 10:25:10;;;;;;;3.92;1.60;;;;;;;21.40;67.25;98385.50;5050381;28;20384;-70
2022/09/09 10:27:35;;;;;;;2.97;1.55;;;;;;;21.46;66.89;98385.19;5049678;28;20397;-70
2022/09/09 10:30:13;;;;;;;4.47;1.58;;;;;;;21.49;66.27;98376.06;5051862;28;20036;-72
2022/09/09 10:32:56;;;;;;;2.20;1.73;;;;;;;21.49;66.44;98374.09;5050921;28;20033;-71
2022/09/09 10:35:43;;;;;;;3.03;1.30;;;;;;;21.51;66.30;98371.75;5050796;28;20032;-71
2022/09/09 10:38:19;;;;;;;1.60;1.50;;;;;;;21.55;65.99;98371.81;5049289;28;20025;-71
2022/09/09 10:40:55;;;;;;;1.52;1.40;;;;;;;21.57;65.86;98372.22;5050550;28;20033;-72
2022/09/09 10:43:47;;;;;;;2.75;1.40;;;;;;;21.56;65.69;98365.88;5050245;28;20660;-70
2022/09/09 10:46:29;;;;;;;3.20;1.60;;;;;;;21.54;65.46;98365.44;5050864;28;20104;-71
2022/09/09 10:49:18;;;;;;;1.60;1.20;;;;;;;21.58;65.21;98364.69;5050474;28;20124;-72
2022/09/09 10:52:05;;;;;;;1.88;1.20;;;;;;;21.55;63.95;98360.63;5044187;28;20130;-72
2022/09/09 10:54:42;;;;;;;1.83;1.10;;;;;;;21.52;63.96;98365.00;5051515;28;20100;-72
2022/09/09 10:57:38;;;;;;;2.55;1.17;;;;;;;21.54;63.46;98370.19;5050429;28;20068;-70
2022/09/09 11:00:07;;;;;;;1.33;0.93;;;;;;;21.57;63.33;98361.06;5051537;28;20115;-71
2022/09/09 11:02:34;;;;;;;1.80;1.10;;;;;;;21.65;63.09;98368.41;5050718;28;20024;-72
2022/09/09 11:05:06;;;;;;;4.82;1.77;;;;;;;21.70;62.57;98353.34;5049559;28;20037;-71
2022/09/09 11:07:34;;;;;;;2.78;1.13;;;;;;;21.79;62.06;98359.47;5049523;28;20060;-71
2022/09/09 11:10:06;;;;;;;2.85;1.10;;;;;;;21.86;62.47;98355.97;5050933;28;20397;-71
2022/09/09 11:12:37;;;;;;;1.10;1.00;;;;;;;21.98;62.61;98360.56;5050165;28;20021;-71
2022/09/09 11:15:16;;;;;;;3.00;1.15;;;;;;;22.10;62.56;98359.53;5050656;28;20037;-71
2022/09/09 11:17:56;;;;;;;3.80;1.30;;;;;;;22.22;61.39;98352.94;5051156;28;20024;-71
2022/09/09 11:20:25;;;;;;;2.63;1.23;;;;;;;22.31;61.47;98359.84;5051164;28;20569;-72
2022/09/09 11:22:50;;;;;;;1.53;1.10;;;;;;;22.46;61.75;98357.28;5049255;28;20033;-71
2022/09/09 11:25:21;;;;;;;2.20;1.38;;;;;;;22.59;61.05;98367.03;5051125;28;20032;-71
2022/09/09 11:27:59;;;;;;;3.92;1.20;;;;;;;22.69;59.55;98367.53;5051058;28;20074;-71
2022/09/09 11:31:03;;;;;;;2.15;1.13;;;;;;;22.78;59.76;98379.25;5050942;28;20404;-71
2022/09/09 11:33:59;;;;;;;3.72;1.20;;;;;;;22.78;59.00;98368.06;5050980;28;20107;-70
2022/09/09 11:36:36;;;;;;;3.28;1.20;;;;;;;22.77;58.26;98366.44;5049844;28;20063;-71
2022/09/09 11:39:07;;;;;;;2.00;1.00;;;;;;;22.77;58.11;98369.25;5051588;28;20029;-71
2022/09/09 11:41:37;;;;;;;5.15;0.90;;;;;;;22.74;56.51;98370.00;5051367;28;20021;-71
2022/09/09 11:44:16;;;;;;;1.98;1.10;;;;;;;22.72;56.84;98376.00;5050729;28;20045;-70
2022/09/09 11:46:46;;;;;;;4.78;1.13;;;;;;;22.71;55.66;98370.75;5051269;28;20036;-71
2022/09/09 11:49:45;;;;;;;3.35;1.38;;;;;;;22.68;56.41;98369.53;5051481;28;20039;-71
2022/09/09 11:52:36;;;;;;;3.22;1.10;;;;;;;22.70;56.52;98369.16;5046960;28;20025;-71
2022/09/09 11:55:11;;;;;;;1.58;1.00;;;;;;;22.72;55.99;98369.56;5050794;28;20056;-71